createdAt,value
2024-02-23T00:02:18.911Z,1.60
2024-02-23T00:05:04.366Z,1.92
2024-02-23T00:07:49.926Z,1.63
2024-02-23T00:10:34.976Z,1.83
2024-02-23T00:13:20.047Z,2.13
2024-02-23T00:16:05.104Z,2.38
2024-02-23T00:18:50.367Z,2.33
2024-02-23T00:21:35.296Z,1.73
2024-02-23T00:24:21.797Z,1.65
2024-02-23T00:27:07.409Z,1.92
2024-02-23T00:29:52.625Z,1.73
2024-02-23T00:32:37.627Z,2.10
2024-02-23T00:35:22.967Z,2.22
2024-02-23T00:38:08.864Z,2.20
2024-02-23T00:40:53.876Z,1.98
2024-02-23T00:43:39.554Z,2.20
2024-02-23T00:46:24.726Z,1.67
2024-02-23T00:49:09.798Z,1.90
2024-02-23T00:51:55.002Z,2.75
2024-02-23T00:54:39.969Z,2.50
2024-02-23T00:57:30.623Z,2.15
2024-02-23T01:00:15.726Z,2.40
2024-02-23T01:03:01.492Z,1.90
2024-02-23T01:05:46.661Z,2.15
2024-02-23T01:08:32.546Z,2.35
2024-02-23T01:11:17.520Z,2.63
2024-02-23T01:14:02.532Z,1.52
2024-02-23T01:16:47.337Z,1.77
2024-02-23T01:19:32.131Z,2.03
2024-02-23T01:22:16.957Z,1.67
2024-02-23T01:25:01.958Z,2.13
2024-02-23T01:27:46.941Z,1.80
2024-02-23T01:30:31.858Z,2.25
2024-02-23T01:33:17.068Z,2.10
2024-02-23T01:36:02.034Z,1.95
2024-02-23T01:38:47.865Z,1.90
2024-02-23T01:41:33.566Z,1.95
2024-02-23T01:44:18.496Z,1.55
2024-02-23T01:47:04.002Z,2.72
2024-02-23T01:49:49.180Z,1.73
2024-02-23T01:52:34.036Z,1.50
2024-02-23T01:55:20.263Z,1.50
2024-02-23T01:58:08.209Z,1.45
2024-02-23T02:00:53.878Z,1.08
2024-02-23T02:03:39.545Z,1.80
2024-02-23T02:06:25.276Z,1.83
2024-02-23T02:09:10.057Z,1.30
2024-02-23T02:11:55.070Z,1.40
2024-02-23T02:14:39.917Z,1.63
2024-02-23T02:17:24.885Z,1.70
2024-02-23T02:20:14.597Z,1.20
2024-02-23T02:23:00.039Z,1.55
2024-02-23T02:25:45.116Z,1.63
2024-02-23T02:28:30.096Z,1.83
2024-02-23T02:31:14.960Z,2.22
2024-02-23T02:33:59.860Z,1.60
2024-02-23T02:36:44.576Z,1.23
2024-02-23T02:39:29.682Z,1.70
2024-02-23T02:42:14.613Z,1.13
2024-02-23T02:44:59.628Z,1.80
2024-02-23T02:47:45.049Z,1.33
2024-02-23T02:50:30.350Z,1.20
2024-02-23T02:53:15.543Z,1.08
2024-02-23T02:56:00.777Z,1.00
2024-02-23T02:58:45.652Z,0.90
2024-02-23T03:01:30.562Z,1.40
2024-02-23T03:04:15.590Z,1.08
2024-02-23T03:07:00.575Z,1.00
2024-02-23T03:09:46.011Z,0.85
2024-02-23T03:12:31.080Z,1.65
2024-02-23T03:15:16.271Z,1.00
2024-02-23T03:18:02.695Z,1.02
2024-02-23T03:20:47.782Z,1.00
2024-02-23T03:23:32.817Z,1.08
2024-02-23T03:26:18.480Z,1.00
2024-02-23T03:29:03.701Z,1.20
2024-02-23T03:31:48.625Z,1.15
2024-02-23T03:34:33.489Z,1.20
2024-02-23T03:37:18.326Z,0.80
2024-02-23T03:40:04.205Z,1.10
2024-02-23T03:42:49.224Z,0.60
2024-02-23T03:45:34.110Z,0.70
2024-02-23T03:48:18.990Z,0.70
2024-02-23T03:51:07.155Z,0.60
2024-02-23T03:53:52.365Z,0.52
2024-02-23T03:56:41.557Z,0.40
2024-02-23T03:59:26.850Z,0.55
2024-02-23T04:02:11.680Z,0.85
2024-02-23T04:04:56.696Z,1.08
2024-02-23T04:07:41.594Z,0.60
2024-02-23T04:10:26.384Z,0.63
2024-02-23T04:13:14.667Z,0.68
2024-02-23T04:16:02.096Z,0.98
2024-02-23T04:18:47.128Z,0.85
2024-02-23T04:21:32.106Z,0.60
2024-02-23T04:24:17.068Z,0.85
2024-02-23T04:27:02.063Z,0.70
2024-02-23T04:29:46.904Z,0.80
2024-02-23T04:32:32.063Z,0.65
2024-02-23T04:35:17.490Z,0.90
2024-02-23T04:38:02.373Z,0.70
2024-02-23T04:40:47.244Z,0.80
2024-02-23T04:43:32.956Z,0.88
2024-02-23T04:46:18.171Z,0.82
2024-02-23T04:49:03.252Z,0.93
2024-02-23T04:51:48.162Z,0.88
2024-02-23T04:54:33.094Z,0.90
2024-02-23T04:57:18.011Z,1.08
2024-02-23T05:00:03.151Z,0.70
2024-02-23T05:02:48.030Z,1.25
2024-02-23T05:05:33.219Z,0.90
2024-02-23T05:08:18.843Z,0.90
2024-02-23T05:11:04.298Z,1.27
2024-02-23T05:13:49.767Z,1.27
2024-02-23T05:16:34.988Z,1.30
2024-02-23T05:19:19.860Z,0.85
2024-02-23T05:22:04.983Z,1.00
2024-02-23T05:24:50.105Z,0.80
2024-02-23T05:27:35.034Z,1.42
2024-02-23T05:30:20.047Z,0.90
2024-02-23T05:33:05.946Z,0.65
2024-02-23T05:35:50.998Z,0.80
2024-02-23T05:38:36.255Z,1.38
2024-02-23T05:41:21.158Z,1.25
2024-02-23T05:44:07.020Z,0.93
2024-02-23T05:46:52.047Z,0.85
2024-02-23T05:49:37.007Z,1.00
2024-02-23T05:52:21.968Z,0.98
2024-02-23T05:55:06.896Z,1.17
2024-02-23T05:57:52.240Z,0.60
2024-02-23T06:00:37.256Z,0.82
2024-02-23T06:03:22.025Z,0.98
2024-02-23T06:06:10.411Z,1.10
2024-02-23T06:08:55.545Z,0.88
2024-02-23T06:11:40.696Z,0.95
2024-02-23T06:14:25.964Z,0.90
2024-02-23T06:17:10.885Z,0.90
2024-02-23T06:19:58.547Z,1.30
2024-02-23T06:22:43.691Z,0.95
2024-02-23T06:25:28.527Z,0.98
2024-02-23T06:28:13.467Z,0.93
2024-02-23T06:30:58.448Z,1.00
2024-02-23T06:33:43.372Z,0.65
2024-02-23T06:36:28.276Z,0.77
2024-02-23T06:39:13.178Z,1.30
2024-02-23T06:41:58.929Z,0.98
2024-02-23T06:44:44.351Z,1.30
2024-02-23T06:47:29.391Z,1.23
2024-02-23T06:50:14.758Z,0.90
2024-02-23T06:52:59.595Z,0.90
2024-02-23T06:55:44.420Z,0.90
2024-02-23T06:58:29.366Z,0.98
2024-02-23T07:01:14.587Z,1.00
2024-02-23T07:04:00.025Z,1.83
2024-02-23T07:06:45.369Z,0.90
2024-02-23T07:09:30.387Z,1.13
2024-02-23T07:12:15.482Z,1.23
2024-02-23T07:15:00.383Z,0.98
2024-02-23T07:17:46.123Z,1.23
2024-02-23T07:20:31.175Z,1.55
2024-02-23T07:23:17.495Z,0.98
2024-02-23T07:26:02.625Z,1.10
2024-02-23T07:28:47.484Z,1.60
2024-02-23T07:31:33.157Z,1.35
2024-02-23T07:34:18.686Z,1.27
2024-02-23T07:37:04.509Z,1.38
2024-02-23T07:39:49.702Z,1.45
2024-02-23T07:42:36.553Z,1.40
2024-02-23T07:45:21.537Z,1.30
2024-02-23T07:48:07.001Z,1.38
2024-02-23T07:50:52.357Z,1.05
2024-02-23T07:53:38.179Z,1.23
2024-02-23T07:56:23.333Z,1.55
2024-02-23T07:59:08.227Z,2.10
2024-02-23T08:01:53.136Z,1.13
2024-02-23T08:04:38.937Z,1.42
2024-02-23T08:07:24.271Z,1.08
2024-02-23T08:10:10.556Z,1.35
2024-02-23T08:12:55.555Z,1.45
2024-02-23T08:15:40.496Z,1.30
2024-02-23T08:18:25.750Z,1.10
2024-02-23T08:21:11.668Z,1.40
2024-02-23T08:23:56.726Z,1.77
2024-02-23T08:26:42.129Z,1.58
2024-02-23T08:29:27.316Z,1.65
2024-02-23T08:32:12.517Z,0.93
2024-02-23T08:35:00.636Z,0.90
2024-02-23T08:37:46.291Z,1.15
2024-02-23T08:40:31.674Z,1.10
2024-02-23T08:43:16.624Z,1.35
2024-02-23T08:46:06.793Z,1.08
2024-02-23T08:48:54.151Z,1.60
2024-02-23T08:51:39.055Z,1.13
2024-02-23T08:54:24.380Z,1.10
2024-02-23T08:57:09.238Z,1.23
2024-02-23T08:59:54.426Z,1.35
2024-02-23T09:02:43.501Z,1.00
2024-02-23T09:05:28.969Z,1.63
2024-02-23T09:08:14.826Z,1.13
2024-02-23T09:10:59.841Z,1.02
2024-02-23T09:13:44.948Z,1.00
2024-02-23T09:16:30.115Z,1.00
2024-02-23T09:19:15.119Z,1.50
2024-02-23T09:22:01.210Z,1.40
2024-02-23T09:24:46.157Z,3.05
2024-02-23T09:27:31.217Z,1.40
2024-02-23T09:30:16.261Z,1.02
2024-02-23T09:33:01.657Z,0.95
2024-02-23T09:35:46.984Z,1.45
2024-02-23T09:38:33.522Z,1.25
2024-02-23T09:41:23.440Z,0.95
2024-02-23T09:44:10.497Z,1.42
2024-02-23T09:46:56.357Z,1.02
2024-02-23T09:49:41.913Z,1.77
2024-02-23T09:52:29.926Z,1.35
2024-02-23T09:55:15.203Z,1.48
2024-02-23T09:58:01.063Z,1.23
2024-02-23T10:00:46.389Z,1.30
2024-02-23T10:03:31.873Z,0.95
2024-02-23T10:06:16.681Z,1.20
2024-02-23T10:09:01.771Z,1.65
2024-02-23T10:11:52.539Z,1.67
2024-02-23T10:14:37.889Z,1.35
2024-02-23T10:17:23.352Z,1.25
2024-02-23T10:20:08.749Z,1.42
2024-02-23T10:22:55.270Z,1.58
2024-02-23T10:25:40.927Z,1.48
2024-02-23T10:28:25.979Z,1.80
2024-02-23T10:31:13.668Z,1.20
2024-02-23T10:33:59.762Z,1.15
2024-02-23T10:36:46.454Z,1.50
2024-02-23T10:39:31.782Z,1.58
2024-02-23T10:42:21.293Z,1.80
2024-02-23T10:45:06.750Z,1.40
2024-02-23T10:47:52.483Z,1.67
2024-02-23T10:50:38.315Z,1.75
2024-02-23T10:53:24.510Z,1.50
2024-02-23T10:56:11.506Z,1.70
2024-02-23T10:58:56.737Z,3.42
2024-02-23T11:01:41.903Z,2.55
2024-02-23T11:04:28.721Z,3.38
2024-02-23T11:07:17.086Z,1.90
2024-02-23T11:10:02.315Z,1.85
2024-02-23T11:12:58.661Z,1.55
2024-02-23T11:15:43.765Z,2.22
2024-02-23T11:18:29.498Z,1.52
2024-02-23T11:21:14.551Z,1.40
2024-02-23T11:24:03.414Z,1.60
2024-02-23T11:26:49.129Z,1.40
2024-02-23T11:29:34.195Z,1.70
2024-02-23T11:32:19.556Z,1.70
2024-02-23T11:35:04.723Z,2.13
2024-02-23T11:37:57.829Z,3.15
2024-02-23T11:40:42.661Z,3.13
2024-02-23T11:43:27.738Z,2.05
2024-02-23T11:46:13.380Z,1.77
2024-02-23T11:48:58.584Z,3.08
2024-02-23T11:51:45.621Z,2.33
2024-02-23T11:54:31.277Z,2.30
2024-02-23T11:57:16.469Z,1.83
2024-02-23T12:00:05.006Z,2.08
2024-02-23T12:02:51.251Z,1.90
2024-02-23T12:05:36.455Z,1.60
2024-02-23T12:08:21.565Z,1.80
2024-02-23T12:11:08.374Z,1.58
2024-02-23T12:13:53.758Z,2.25
2024-02-23T12:16:40.733Z,2.00
2024-02-23T12:19:25.717Z,2.15
2024-02-23T12:22:13.955Z,1.95
2024-02-23T12:24:59.220Z,1.48
2024-02-23T12:27:44.505Z,2.05
2024-02-23T12:30:32.252Z,2.25
2024-02-23T12:33:17.915Z,2.40
2024-02-23T12:36:03.632Z,3.25
2024-02-23T12:38:48.688Z,1.98
2024-02-23T12:41:33.620Z,2.30
2024-02-23T12:44:18.692Z,2.13
2024-02-23T12:47:04.262Z,2.17
2024-02-23T12:49:49.613Z,2.30
2024-02-23T12:52:34.432Z,2.25
2024-02-23T12:55:19.418Z,3.03
2024-02-23T12:58:04.317Z,2.35
2024-02-23T13:00:49.546Z,1.55
2024-02-23T13:03:35.060Z,0.80
2024-02-23T13:06:20.160Z,0.50
2024-02-23T13:09:05.646Z,0.60
2024-02-23T13:11:50.717Z,0.50
2024-02-23T13:14:36.180Z,0.70
2024-02-23T13:17:21.078Z,1.00
2024-02-23T13:20:11.493Z,0.90
2024-02-23T13:22:57.383Z,0.98
2024-02-23T13:25:43.634Z,0.98
2024-02-23T13:28:29.195Z,1.08
2024-02-23T13:31:16.068Z,1.10
2024-02-23T13:34:01.495Z,1.00
2024-02-23T13:36:47.031Z,1.08
2024-02-23T13:39:33.437Z,0.80
2024-02-23T13:42:18.640Z,1.00
2024-02-23T13:45:03.687Z,1.63
2024-02-23T13:48:01.968Z,1.40
2024-02-23T13:50:47.802Z,1.38
2024-02-23T13:53:33.794Z,1.50
2024-02-23T13:56:19.158Z,1.77
2024-02-23T13:59:05.138Z,1.90
2024-02-23T14:01:49.932Z,1.38
2024-02-23T14:04:34.829Z,1.83
2024-02-23T14:07:19.556Z,1.75
2024-02-23T14:10:04.682Z,2.03
2024-02-23T14:12:51.707Z,1.45
2024-02-23T14:15:36.597Z,1.42
2024-02-23T14:18:21.498Z,1.60
2024-02-23T14:21:06.467Z,1.40
2024-02-23T14:23:51.366Z,1.45
2024-02-23T14:26:36.956Z,1.85
2024-02-23T14:29:22.300Z,1.52
2024-02-23T14:32:07.468Z,1.20
2024-02-23T14:34:52.415Z,1.15
2024-02-23T14:37:37.426Z,1.13
2024-02-23T14:40:22.313Z,1.00
2024-02-23T14:43:07.266Z,1.60
2024-02-23T14:45:55.259Z,1.33
2024-02-23T14:48:40.250Z,1.20
2024-02-23T14:51:25.200Z,0.80
2024-02-23T14:54:10.023Z,1.20
2024-02-23T14:56:55.011Z,0.80
2024-02-23T14:59:47.476Z,0.93
2024-02-23T15:02:32.873Z,0.80
2024-02-23T15:05:18.849Z,1.20
2024-02-23T15:08:04.014Z,0.80
2024-02-23T15:10:48.979Z,0.63
2024-02-23T15:13:33.968Z,0.95
2024-02-23T15:16:18.927Z,0.65
2024-02-23T15:19:05.813Z,0.60
2024-02-23T15:21:54.108Z,1.08
2024-02-23T15:24:38.941Z,1.13
2024-02-23T15:27:23.691Z,0.57
2024-02-23T15:30:11.698Z,1.20
2024-02-23T15:32:56.722Z,0.68
2024-02-23T15:35:41.544Z,0.73
2024-02-23T15:38:27.164Z,0.70
2024-02-23T15:41:12.820Z,0.70
2024-02-23T15:43:57.818Z,0.88
2024-02-23T15:46:42.837Z,0.70
2024-02-23T15:49:44.991Z,0.85
2024-02-23T15:52:32.867Z,0.77
2024-02-23T15:55:19.207Z,0.88
2024-02-23T15:58:04.688Z,1.08
2024-02-23T16:00:50.096Z,0.70
2024-02-23T16:03:35.765Z,0.65
2024-02-23T16:06:20.695Z,0.60
2024-02-23T16:09:09.887Z,0.93
2024-02-23T16:11:55.162Z,0.93
2024-02-23T16:14:40.588Z,0.60
2024-02-23T16:17:25.611Z,0.82
2024-02-23T16:20:10.740Z,0.90
2024-02-23T16:22:55.641Z,1.20
2024-02-23T16:25:40.723Z,0.75
2024-02-23T16:28:26.069Z,1.08
2024-02-23T16:31:11.446Z,1.02
2024-02-23T16:33:56.306Z,1.00
2024-02-23T16:36:42.756Z,1.10
2024-02-23T16:39:28.452Z,1.10
2024-02-23T16:42:13.362Z,1.60
2024-02-23T16:44:58.393Z,1.20
2024-02-23T16:47:43.617Z,1.10
2024-02-23T16:50:28.970Z,1.15
2024-02-23T16:53:15.056Z,1.42
2024-02-23T16:56:02.011Z,1.00
2024-02-23T16:58:47.062Z,1.30
2024-02-23T17:01:32.343Z,1.08
2024-02-23T17:04:17.426Z,1.17
2024-02-23T17:07:02.921Z,1.05
2024-02-23T17:09:49.140Z,1.38
2024-02-23T17:12:34.091Z,0.90
2024-02-23T17:15:19.000Z,0.90
2024-02-23T17:18:04.442Z,0.85
2024-02-23T17:20:50.332Z,0.85
2024-02-23T17:23:35.444Z,0.82
2024-02-23T17:26:20.294Z,1.00
2024-02-23T17:29:05.136Z,0.90
2024-02-23T17:31:49.997Z,0.60
2024-02-23T17:34:34.864Z,0.77
2024-02-23T17:37:22.591Z,1.08
2024-02-23T17:40:08.708Z,1.10
2024-02-23T17:42:53.894Z,1.00
2024-02-23T17:45:38.909Z,1.48
2024-02-23T17:48:23.949Z,1.00
2024-02-23T17:51:09.512Z,1.02
2024-02-23T17:53:58.981Z,1.15
2024-02-23T17:56:43.928Z,1.02
2024-02-23T17:59:29.016Z,0.82
2024-02-23T18:02:15.174Z,1.30
2024-02-23T18:05:00.283Z,1.33
2024-02-23T18:07:45.066Z,0.95
2024-02-23T18:10:29.987Z,1.23
2024-02-23T18:13:15.551Z,1.10
2024-02-23T18:16:08.860Z,1.27
2024-02-23T18:18:54.318Z,1.13
2024-02-23T18:21:39.722Z,1.00
2024-02-23T18:24:24.602Z,1.00
2024-02-23T18:27:10.043Z,0.95
2024-02-23T18:29:54.942Z,1.10
2024-02-23T18:32:41.936Z,2.00
2024-02-23T18:35:29.240Z,1.70
2024-02-23T18:38:14.496Z,1.50
2024-02-23T18:41:00.694Z,3.13
2024-02-23T18:43:48.278Z,4.70
2024-02-23T18:46:33.422Z,2.28
2024-02-23T18:49:18.265Z,2.35
2024-02-23T18:52:03.280Z,1.48
2024-02-23T18:54:49.180Z,1.90
2024-02-23T18:57:33.999Z,1.60
2024-02-23T19:00:19.093Z,0.80
2024-02-23T19:03:04.602Z,1.13
2024-02-23T19:05:49.718Z,0.93
2024-02-23T19:08:34.810Z,1.35
2024-02-23T19:11:20.317Z,1.00
2024-02-23T19:14:05.677Z,0.90
2024-02-23T19:16:50.660Z,1.00
2024-02-23T19:19:35.689Z,1.02
2024-02-23T19:22:23.712Z,1.00
2024-02-23T19:25:11.820Z,1.00
2024-02-23T19:27:56.928Z,0.90
2024-02-23T19:30:43.904Z,1.13
2024-02-23T19:33:29.404Z,1.40
2024-02-23T19:36:16.010Z,1.98
2024-02-23T19:39:01.541Z,2.42
2024-02-23T19:41:47.017Z,2.70
2024-02-23T19:44:32.294Z,3.22
2024-02-23T19:47:17.292Z,3.10
2024-02-23T19:50:02.684Z,3.30
2024-02-23T19:52:48.060Z,3.10
2024-02-23T19:55:33.253Z,2.80
2024-02-23T19:58:18.260Z,3.00
2024-02-23T20:01:03.602Z,2.90
2024-02-23T20:03:48.480Z,3.50
2024-02-23T20:06:33.467Z,4.13
2024-02-23T20:09:18.321Z,5.50
2024-02-23T20:12:03.514Z,5.90
2024-02-23T20:14:48.958Z,10.20
2024-02-23T20:17:36.636Z,7.78
2024-02-23T20:20:23.129Z,6.18
2024-02-23T20:23:08.184Z,5.47
2024-02-23T20:25:53.141Z,6.22
2024-02-23T20:28:38.070Z,6.43
2024-02-23T20:31:23.019Z,7.07
2024-02-23T20:34:08.493Z,7.68
2024-02-23T20:36:54.473Z,7.55
2024-02-23T20:39:39.688Z,7.40
2024-02-23T20:42:24.653Z,5.72
2024-02-23T20:45:10.156Z,3.30
2024-02-23T20:47:55.300Z,3.50
2024-02-23T20:50:40.602Z,2.60
2024-02-23T20:53:25.571Z,3.00
2024-02-23T20:56:10.837Z,3.30
2024-02-23T20:58:55.949Z,3.15
2024-02-23T21:01:40.949Z,3.55
2024-02-23T21:04:25.924Z,3.20
2024-02-23T21:07:10.815Z,3.75
2024-02-23T21:09:55.902Z,4.00
2024-02-23T21:12:40.880Z,4.07
2024-02-23T21:15:25.769Z,4.20
2024-02-23T21:18:16.183Z,4.47
2024-02-23T21:21:01.509Z,4.75
2024-02-23T21:23:46.579Z,4.72
2024-02-23T21:26:32.044Z,4.78
2024-02-23T21:29:16.953Z,4.38
2024-02-23T21:32:01.804Z,3.60
2024-02-23T21:34:46.843Z,3.38
2024-02-23T21:37:32.743Z,3.60
2024-02-23T21:40:18.241Z,2.70
2024-02-23T21:43:03.632Z,2.38
2024-02-23T21:45:48.848Z,2.33
2024-02-23T21:48:34.265Z,2.85
2024-02-23T21:51:19.265Z,2.63
2024-02-23T21:54:05.468Z,2.67
2024-02-23T21:56:50.495Z,2.80
2024-02-23T21:59:35.379Z,2.53
2024-02-23T22:02:20.318Z,3.78
2024-02-23T22:05:05.344Z,5.80
2024-02-23T22:07:50.515Z,4.68
2024-02-23T22:10:36.228Z,4.30
2024-02-23T22:13:21.323Z,3.88
2024-02-23T22:16:06.139Z,4.60
2024-02-23T22:18:51.120Z,3.22
2024-02-23T22:21:35.936Z,3.97
2024-02-23T22:24:20.924Z,3.25
2024-02-23T22:27:06.775Z,2.60
2024-02-23T22:29:52.254Z,2.72
2024-02-23T22:32:37.998Z,3.10
2024-02-23T22:35:26.336Z,2.95
2024-02-23T22:38:11.163Z,2.60
2024-02-23T22:40:55.923Z,2.60
2024-02-23T22:43:41.333Z,2.25
2024-02-23T22:46:27.647Z,1.88
2024-02-23T22:49:12.653Z,2.40
2024-02-23T22:51:57.884Z,2.42
2024-02-23T22:54:43.447Z,2.38
2024-02-23T22:57:28.822Z,2.58
2024-02-23T23:00:14.514Z,2.55
2024-02-23T23:02:59.958Z,2.28
2024-02-23T23:05:45.349Z,2.50
2024-02-23T23:08:30.542Z,1.98
2024-02-23T23:11:15.535Z,2.95
2024-02-23T23:14:01.996Z,2.80
2024-02-23T23:16:47.090Z,3.10
2024-02-23T23:19:31.988Z,3.85
2024-02-23T23:22:17.001Z,3.95
2024-02-23T23:25:02.246Z,3.72
2024-02-23T23:27:48.586Z,3.42
2024-02-23T23:30:33.799Z,3.85
2024-02-23T23:33:19.221Z,4.00
2024-02-23T23:36:04.012Z,4.72
2024-02-23T23:38:49.475Z,4.70
2024-02-23T23:41:34.548Z,6.35
2024-02-23T23:44:19.515Z,5.97
2024-02-23T23:47:05.029Z,5.60
2024-02-23T23:49:49.866Z,6.57
2024-02-23T23:52:34.672Z,6.43
2024-02-23T23:55:19.790Z,6.22
2024-02-23T23:58:05.024Z,5.45
